Time;durP1;ratioP1;P1;durP2;ratioP2;P2;SDS_P1;SDS_P2;PMS_P1;PMS_P2;Temp;Humidity;BMP_temperature;BMP_pressure;BME280_temperature;BME280_humidity;BME280_pressure;Samples;Min_cycle;Max_cycle;Signal;HPM_P1;HPM_P2
2023/05/09 00:01:50;;;;;;;4.55;4.25;;;12.90;79.30;;;;;;5132693;27;20282;-77
2023/05/09 00:04:18;;;;;;;7.32;4.85;;;12.90;79.30;;;;;;5132724;27;20253;-76
2023/05/09 00:06:45;;;;;;;5.13;4.72;;;12.90;79.70;;;;;;5132539;27;20313;-76
2023/05/09 00:09:12;;;;;;;4.78;4.38;;;12.90;79.80;;;;;;5133313;27;20317;-76
2023/05/09 00:11:39;;;;;;;6.50;5.03;;;12.80;79.90;;;;;;5132848;27;20666;-76
2023/05/09 00:14:06;;;;;;;4.90;4.50;;;12.70;80.30;;;;;;5133082;27;20241;-76
2023/05/09 00:16:35;;;;;;;5.68;5.18;;;12.70;80.50;;;;;;5132928;27;20290;-76
2023/05/09 00:19:02;;;;;;;5.00;4.55;;;12.60;80.70;;;;;;5132866;27;20308;-76
2023/05/09 00:21:33;;;;;;;5.82;5.15;;;12.60;81.00;;;;;;5132814;27;20705;-76
2023/05/09 00:24:00;;;;;;;4.95;4.22;;;12.60;81.00;;;;;;5133274;27;20222;-76
2023/05/09 00:26:27;;;;;;;6.10;4.80;;;12.50;81.30;;;;;;5132585;27;20245;-76
2023/05/09 00:28:54;;;;;;;4.65;4.25;;;12.50;81.60;;;;;;5133142;27;20218;-76
2023/05/09 00:31:25;;;;;;;4.68;4.28;;;12.50;81.70;;;;;;5132924;27;20256;-76
2023/05/09 00:33:54;;;;;;;7.03;4.30;;;12.50;81.80;;;;;;5132787;27;20678;-76
2023/05/09 00:36:21;;;;;;;5.10;4.70;;;12.50;82.20;;;;;;5132844;27;20346;-76
2023/05/09 00:38:47;;;;;;;4.38;3.97;;;12.40;82.50;;;;;;5133227;27;20229;-76
2023/05/09 00:41:14;;;;;;;6.28;4.00;;;12.30;82.40;;;;;;5132812;27;20218;-76
2023/05/09 00:43:41;;;;;;;5.22;4.47;;;12.30;82.90;;;;;;5132568;27;20267;-76
2023/05/09 00:46:08;;;;;;;6.70;5.10;;;12.40;83.20;;;;;;5132729;27;20644;-76
2023/05/09 00:48:36;;;;;;;5.80;4.72;;;12.40;82.90;;;;;;5131993;27;20226;-76
2023/05/09 00:51:05;;;;;;;8.55;4.22;;;12.40;82.90;;;;;;5133575;27;20217;-76
2023/05/09 00:53:32;;;;;;;5.72;4.45;;;12.40;82.80;;;;;;5135604;27;20307;-76
2023/05/09 00:56:00;;;;;;;4.30;3.90;;;12.40;82.80;;;;;;5136257;27;20260;-76
2023/05/09 00:58:28;;;;;;;5.35;4.55;;;12.40;82.80;;;;;;5159467;27;20220;-76
2023/05/09 01:00:55;;;;;;;5.93;4.65;;;12.40;83.00;;;;;;5136633;27;20282;-75
2023/05/09 01:03:22;;;;;;;5.88;4.57;;;12.30;83.00;;;;;;5136274;27;20222;-76
2023/05/09 01:05:58;;;;;;;4.07;3.67;;;12.30;83.70;;;;;;5136184;27;20249;-76
2023/05/09 01:08:48;;;;;;;5.65;4.10;;;12.20;83.00;;;;;;5135818;27;20234;-76
2023/05/09 01:11:23;;;;;;;9.20;4.65;;;12.20;83.30;;;;;;5136420;27;20229;-76
2023/05/09 01:14:00;;;;;;;4.70;3.95;;;12.20;83.60;;;;;;5135894;27;20221;-76
2023/05/09 01:16:35;;;;;;;4.70;4.20;;;12.20;83.00;;;;;;5160012;27;20328;-76
2023/05/09 01:19:10;;;;;;;6.13;3.95;;;12.20;83.30;;;;;;5135822;27;20221;-76
2023/05/09 01:21:40;;;;;;;5.10;3.92;;;12.20;83.00;;;;;;5136422;27;20233;-75
2023/05/09 01:24:33;;;;;;;4.15;3.75;;;12.20;82.90;;;;;;5136267;27;20226;-76
2023/05/09 01:27:26;;;;;;;4.25;3.83;;;12.20;83.20;;;;;;5135839;27;20708;-76
2023/05/09 01:29:57;;;;;;;4.63;3.65;;;12.10;83.10;;;;;;5135372;27;20289;-76
2023/05/09 01:32:27;;;;;;;5.18;4.30;;;12.10;82.80;;;;;;5135806;27;20674;-76
2023/05/09 01:34:56;;;;;;;5.53;3.65;;;12.10;83.00;;;;;;5135394;27;20261;-76
2023/05/09 01:37:29;;;;;;;5.65;3.50;;;12.20;82.70;;;;;;5136114;27;20218;-76
2023/05/09 01:40:00;;;;;;;5.00;3.85;;;12.30;82.50;;;;;;5135219;27;20658;-76
2023/05/09 01:42:34;;;;;;;4.35;3.95;;;12.30;82.50;;;;;;5135691;27;20229;-77
2023/05/09 01:45:08;;;;;;;5.30;4.65;;;12.30;82.10;;;;;;5129459;27;20226;-76
2023/05/09 01:47:35;;;;;;;5.10;3.30;;;12.20;81.70;;;;;;5162684;27;20560;-75
2023/05/09 01:50:04;;;;;;;4.63;4.10;;;12.30;81.70;;;;;;5135243;27;20226;-76
2023/05/09 01:52:33;;;;;;;4.65;3.22;;;12.30;81.30;;;;;;5135319;27;20267;-75
2023/05/09 01:55:02;;;;;;;5.72;4.30;;;12.30;80.70;;;;;;5134487;27;20226;-75
2023/05/09 01:57:31;;;;;;;3.55;3.13;;;12.30;80.20;;;;;;5135362;27;20241;-76
2023/05/09 02:00:03;;;;;;;4.60;3.67;;;12.30;79.90;;;;;;5134716;27;20257;-75
2023/05/09 02:02:32;;;;;;;4.05;3.20;;;12.20;79.20;;;;;;5135342;27;20306;-76
2023/05/09 02:05:00;;;;;;;4.30;3.15;;;12.20;79.10;;;;;;5134827;27;20283;-76
2023/05/09 02:07:30;;;;;;;5.05;3.00;;;12.20;79.00;;;;;;5135093;27;20218;-76
2023/05/09 02:09:58;;;;;;;5.43;3.58;;;12.20;79.10;;;;;;5134812;27;20226;-76
2023/05/09 02:12:25;;;;;;;6.43;3.03;;;12.20;78.20;;;;;;5135167;27;20266;-76
2023/05/09 02:14:52;;;;;;;2.88;2.67;;;12.20;78.40;;;;;;5134356;27;20253;-76
2023/05/09 02:17:20;;;;;;;3.47;3.17;;;12.20;78.20;;;;;;5135178;27;20241;-76
2023/05/09 02:19:53;;;;;;;3.20;2.90;;;12.20;78.00;;;;;;5135014;27;20350;-76
2023/05/09 02:22:20;;;;;;;2.75;2.55;;;12.20;78.00;;;;;;5123549;27;20222;-76
2023/05/09 02:24:47;;;;;;;5.85;3.28;;;12.20;77.70;;;;;;5134870;27;20222;-76
2023/05/09 02:27:15;;;;;;;5.40;2.75;;;12.20;77.70;;;;;;5134455;27;20252;-77
2023/05/09 02:29:45;;;;;;;5.15;3.08;;;12.20;77.40;;;;;;5134844;27;20238;-77
2023/05/09 02:32:16;;;;;;;3.80;3.10;;;12.10;76.90;;;;;;5134126;27;20252;-75
2023/05/09 02:34:45;;;;;;;2.90;2.70;;;12.10;77.00;;;;;;5134688;27;20214;-77
2023/05/09 02:37:14;;;;;;;4.30;2.75;;;12.10;77.30;;;;;;5134049;27;20310;-77
2023/05/09 02:39:41;;;;;;;4.22;2.72;;;12.10;77.00;;;;;;5134925;27;20597;-76
2023/05/09 02:42:10;;;;;;;2.95;2.65;;;12.10;76.80;;;;;;5134692;27;20233;-76
2023/05/09 02:44:38;;;;;;;2.85;2.65;;;12.00;76.80;;;;;;5134526;27;20283;-76
2023/05/09 02:47:07;;;;;;;3.55;3.25;;;12.00;76.90;;;;;;5133021;27;20217;-76
2023/05/09 02:49:34;;;;;;;4.20;2.53;;;12.10;77.10;;;;;;5134270;27;20530;-76
2023/05/09 02:52:01;;;;;;;4.00;3.63;;;12.10;76.70;;;;;;5133795;27;20668;-76
2023/05/09 02:54:30;;;;;;;3.58;3.25;;;12.00;76.70;;;;;;5133893;27;20394;-76
2023/05/09 02:56:58;;;;;;;2.60;2.40;;;12.00;77.00;;;;;;5134583;27;20657;-76
2023/05/09 02:59:26;;;;;;;6.50;3.20;;;12.00;76.60;;;;;;5133767;27;20571;-75
2023/05/09 03:01:53;;;;;;;3.42;2.70;;;12.00;76.60;;;;;;5133970;27;20565;-75
2023/05/09 03:04:20;;;;;;;4.13;3.60;;;12.00;76.80;;;;;;5133790;27;20258;-76
2023/05/09 03:06:47;;;;;;;3.92;3.63;;;12.00;76.70;;;;;;5133782;27;20672;-74
2023/05/09 03:09:16;;;;;;;3.67;3.05;;;12.00;77.00;;;;;;5133373;27;20230;-76
2023/05/09 03:11:45;;;;;;;3.60;2.85;;;11.90;76.70;;;;;;5134014;27;20222;-76
2023/05/09 03:14:13;;;;;;;3.75;2.92;;;12.00;77.10;;;;;;5132773;27;20218;-76
2023/05/09 03:16:40;;;;;;;4.70;3.20;;;12.00;77.30;;;;;;5133708;27;20226;-75
2023/05/09 03:19:07;;;;;;;4.15;2.97;;;12.00;77.00;;;;;;5133711;27;20305;-75
2023/05/09 03:21:35;;;;;;;4.85;3.28;;;12.10;77.10;;;;;;5133857;27;20249;-75
2023/05/09 03:24:03;;;;;;;5.70;3.13;;;12.00;77.20;;;;;;5133814;27;20272;-75
2023/05/09 03:26:30;;;;;;;7.57;3.72;;;12.00;77.30;;;;;;5132511;27;20282;-75
2023/05/09 03:28:59;;;;;;;4.40;3.55;;;11.90;77.10;;;;;;5136520;27;20321;-75
2023/05/09 03:31:26;;;;;;;5.25;4.00;;;12.00;77.40;;;;;;5137934;27;20280;-77
2023/05/09 03:33:53;;;;;;;3.05;2.85;;;12.00;77.40;;;;;;5139076;27;20218;-76
2023/05/09 03:36:20;;;;;;;3.58;3.38;;;12.00;77.50;;;;;;5136845;27;20283;-76
2023/05/09 03:38:47;;;;;;;6.07;3.55;;;12.00;77.60;;;;;;5134396;27;20242;-76
2023/05/09 03:41:16;;;;;;;3.60;3.30;;;12.00;77.40;;;;;;5135221;27;20228;-76
2023/05/09 03:43:43;;;;;;;3.25;2.70;;;11.90;77.80;;;;;;5135546;27;20285;-76
2023/05/09 03:46:11;;;;;;;4.20;3.80;;;11.90;78.00;;;;;;5158562;27;20226;-75
2023/05/09 03:48:39;;;;;;;5.15;3.75;;;11.90;77.90;;;;;;5136876;27;20290;-76
2023/05/09 03:51:06;;;;;;;3.60;3.30;;;11.80;78.20;;;;;;5136476;27;20279;-76
2023/05/09 03:53:36;;;;;;;4.43;3.80;;;11.80;78.40;;;;;;5135707;27;20228;-76
2023/05/09 03:56:02;;;;;;;3.72;3.35;;;11.80;78.40;;;;;;5134791;27;20230;-76
2023/05/09 03:58:30;;;;;;;5.20;3.42;;;11.80;78.60;;;;;;5134671;27;20214;-75
2023/05/09 04:00:59;;;;;;;3.58;3.15;;;11.70;78.60;;;;;;5135896;27;20321;-75
2023/05/09 04:03:27;;;;;;;5.45;3.20;;;11.80;78.90;;;;;;5134670;27;20226;-76
2023/05/09 04:05:54;;;;;;;3.17;2.78;;;11.70;78.80;;;;;;5134722;27;20226;-75
2023/05/09 04:08:22;;;;;;;4.97;4.03;;;11.70;79.20;;;;;;5133999;27;20222;-75
2023/05/09 04:10:49;;;;;;;3.80;3.08;;;11.80;79.30;;;;;;5134956;27;20222;-75
2023/05/09 04:13:16;;;;;;;3.42;3.13;;;11.70;79.10;;;;;;5134704;27;20312;-76
2023/05/09 04:15:43;;;;;;;3.80;3.05;;;11.70;79.20;;;;;;5134301;27;20290;-76
2023/05/09 04:18:11;;;;;;;4.57;3.45;;;11.80;79.20;;;;;;5134123;27;20221;-76
2023/05/09 04:20:39;;;;;;;4.25;3.38;;;11.70;79.30;;;;;;5132780;27;20213;-76
2023/05/09 04:23:06;;;;;;;4.28;3.88;;;11.80;79.60;;;;;;5134339;27;20249;-75
2023/05/09 04:25:33;;;;;;;5.05;4.55;;;11.80;79.60;;;;;;5133998;27;20264;-76
2023/05/09 04:28:00;;;;;;;4.28;3.88;;;11.80;79.50;;;;;;5137491;27;20237;-76
2023/05/09 04:30:27;;;;;;;5.15;4.00;;;11.70;79.60;;;;;;5137297;27;20237;-76
2023/05/09 04:32:54;;;;;;;4.38;3.67;;;11.70;79.70;;;;;;5138646;27;20217;-76
2023/05/09 04:35:21;;;;;;;5.30;3.97;;;11.70;80.00;;;;;;5137312;27;20634;-76
2023/05/09 04:37:51;;;;;;;4.50;3.45;;;11.70;80.90;;;;;;5137973;27;20226;-76
2023/05/09 04:40:18;;;;;;;4.18;3.88;;;11.80;80.30;;;;;;5137759;27;20255;-76
2023/05/09 04:42:45;;;;;;;5.38;4.35;;;11.70;80.50;;;;;;5137626;27;20358;-76
2023/05/09 04:45:12;;;;;;;5.90;3.47;;;11.80;80.40;;;;;;5137999;27;20283;-76
2023/05/09 04:47:39;;;;;;;4.80;3.53;;;11.80;80.50;;;;;;5136821;27;20233;-76
2023/05/09 04:50:07;;;;;;;4.47;3.78;;;11.80;80.70;;;;;;5137236;27;20230;-76
2023/05/09 04:52:34;;;;;;;6.25;4.00;;;11.90;80.90;;;;;;5137184;27;20291;-76
2023/05/09 04:55:02;;;;;;;4.90;4.40;;;11.90;80.80;;;;;;5137284;27;20286;-76
2023/05/09 04:57:29;;;;;;;5.65;4.45;;;11.80;80.60;;;;;;5136890;27;20229;-76
2023/05/09 05:00:10;;;;;;;6.03;3.63;;;11.80;81.00;;;;;;5137542;27;20582;-75
2023/05/09 05:02:37;;;;;;;5.15;3.72;;;11.90;81.00;;;;;;5136326;27;20382;-76
2023/05/09 05:05:05;;;;;;;5.88;3.88;;;11.90;81.00;;;;;;5137271;27;20607;-76
2023/05/09 05:07:32;;;;;;;5.28;4.75;;;11.90;80.90;;;;;;5137037;27;20342;-76
2023/05/09 05:09:59;;;;;;;4.57;4.18;;;11.90;80.80;;;;;;5136906;27;20634;-76
2023/05/09 05:12:27;;;;;;;5.38;4.00;;;12.00;80.80;;;;;;5136155;27;20305;-76
2023/05/09 05:15:18;;;;;;;4.93;4.30;;;12.10;81.00;;;;;;5137083;27;20616;-76
2023/05/09 05:17:45;;;;;;;8.88;5.28;;;12.10;80.80;;;;;;5136951;27;20214;-76
2023/05/09 05:20:12;;;;;;;6.00;3.72;;;12.10;80.40;;;;;;5136994;27;20245;-76
2023/05/09 05:22:39;;;;;;;4.40;4.05;;;12.00;80.20;;;;;;5136207;27;20233;-76
2023/05/09 05:25:07;;;;;;;5.10;4.40;;;12.10;80.20;;;;;;5137072;27;20226;-75
2023/05/09 05:27:41;;;;;;;5.22;4.13;;;12.20;79.90;;;;;;5129225;27;20222;-75
2023/05/09 05:30:09;;;;;;;4.75;4.00;;;12.20;79.80;;;;;;5165494;27;20610;-75
2023/05/09 05:32:36;;;;;;;5.55;3.20;;;12.30;80.00;;;;;;5136299;27;20672;-76
2023/05/09 05:35:03;;;;;;;4.15;3.75;;;12.40;79.60;;;;;;5136794;27;20310;-76
2023/05/09 05:37:31;;;;;;;3.95;3.65;;;12.50;79.50;;;;;;5128395;27;20221;-76
2023/05/09 05:39:58;;;;;;;4.57;3.75;;;12.50;79.00;;;;;;5136328;27;20713;-76
2023/05/09 05:42:25;;;;;;;6.50;3.83;;;12.60;79.30;;;;;;5135474;27;20596;-76
2023/05/09 05:44:56;;;;;;;4.53;4.13;;;12.60;79.90;;;;;;5127152;27;20671;-76
2023/05/09 05:47:24;;;;;;;3.75;3.40;;;12.70;79.60;;;;;;5135322;27;20240;-76
2023/05/09 05:49:51;;;;;;;6.95;4.13;;;12.80;79.10;;;;;;5135675;27;20644;-75
2023/05/09 05:52:18;;;;;;;6.20;4.78;;;12.80;79.70;;;;;;5135281;27;20218;-74
2023/05/09 05:54:48;;;;;;;4.32;3.63;;;12.90;79.70;;;;;;5135585;27;20218;-76
2023/05/09 05:57:15;;;;;;;5.18;3.75;;;12.90;78.40;;;;;;5134448;27;20225;-76
2023/05/09 05:59:43;;;;;;;7.30;4.13;;;13.00;78.40;;;;;;5128015;27;20283;-74
2023/05/09 06:02:14;;;;;;;4.15;3.60;;;13.00;77.90;;;;;;5135201;27;20705;-76
2023/05/09 06:04:41;;;;;;;4.78;4.03;;;13.10;77.90;;;;;;5135321;27;20249;-76
2023/05/09 06:07:09;;;;;;;8.95;4.03;;;13.20;78.70;;;;;;5124359;27;20566;-76
2023/05/09 06:09:36;;;;;;;4.05;3.75;;;13.20;77.80;;;;;;5135232;27;20275;-75
2023/05/09 06:12:03;;;;;;;4.90;3.80;;;13.40;77.60;;;;;;5134673;27;20221;-75
2023/05/09 06:14:30;;;;;;;3.47;3.17;;;13.40;76.80;;;;;;5134831;27;20249;-75
2023/05/09 06:16:59;;;;;;;4.40;3.55;;;13.50;76.70;;;;;;5135232;27;20977;-75
2023/05/09 06:19:27;;;;;;;3.20;2.90;;;13.50;76.00;;;;;;5148091;27;20224;-75
2023/05/09 06:21:54;;;;;;;5.90;4.05;;;13.60;75.70;;;;;;5143691;27;20218;-75
2023/05/09 06:24:21;;;;;;;6.70;3.80;;;13.60;75.20;;;;;;5130001;27;20238;-75
2023/05/09 06:26:51;;;;;;;3.27;2.97;;;13.70;75.40;;;;;;5119862;27;20455;-75
2023/05/09 06:29:18;;;;;;;4.50;3.30;;;13.70;75.10;;;;;;5134024;27;20991;-74
2023/05/09 06:31:46;;;;;;;3.40;3.10;;;13.80;74.70;;;;;;5123207;27;20466;-76
2023/05/09 06:34:13;;;;;;;4.70;3.17;;;13.90;74.40;;;;;;5118198;27;20468;-76
2023/05/09 06:36:44;;;;;;;5.37;3.47;;;14.00;74.10;;;;;;5119004;27;20533;-76
2023/05/09 06:39:11;;;;;;;4.20;3.10;;;14.10;73.00;;;;;;5115690;27;20475;-76
2023/05/09 06:41:42;;;;;;;3.33;3.03;;;14.10;72.50;;;;;;5134236;27;20467;-76
2023/05/09 06:44:10;;;;;;;3.57;3.27;;;14.20;72.70;;;;;;5113188;27;20961;-76
2023/05/09 06:46:37;;;;;;;4.13;3.30;;;14.30;72.10;;;;;;5112998;27;20775;-76
2023/05/09 06:51:55;;;;;;;3.37;2.87;;;14.50;71.90;;;;;;5101930;27;20513;-76
2023/05/09 06:54:25;;;;;;;9.40;3.57;;;14.60;72.10;;;;;;5114088;27;20460;-76
2023/05/09 06:57:02;;;;;;;4.60;3.43;;;14.70;71.30;;;;;;5119828;27;20467;-76
2023/05/09 06:59:29;;;;;;;6.43;3.37;;;14.80;71.40;;;;;;5141084;27;20474;-75
2023/05/09 07:01:56;;;;;;;5.50;3.33;;;14.90;71.50;;;;;;5143877;27;20463;-75
2023/05/09 07:04:23;;;;;;;3.60;3.30;;;14.90;71.40;;;;;;5115887;27;20461;-75
2023/05/09 07:06:50;;;;;;;3.90;3.60;;;14.90;71.50;;;;;;5113720;27;20479;-74
2023/05/09 07:09:20;;;;;;;5.47;3.40;;;14.90;72.00;;;;;;5116935;27;20475;-75
2023/05/09 07:11:46;;;;;;;4.20;3.70;;;15.00;71.60;;;;;;5114931;27;20532;-76
2023/05/09 07:14:14;;;;;;;4.23;3.37;;;15.20;71.60;;;;;;5113299;27;20468;-75
2023/05/09 07:16:41;;;;;;;9.50;4.33;;;15.30;70.90;;;;;;5113481;27;20555;-75
2023/05/09 07:19:08;;;;;;;11.63;4.73;;;15.40;70.80;;;;;;5113812;27;20457;-75
2023/05/09 07:21:35;;;;;;;4.47;3.70;;;15.50;70.80;;;;;;5112939;27;20510;-75
2023/05/09 07:24:02;;;;;;;3.70;3.40;;;15.70;70.60;;;;;;5113746;27;20563;-75
2023/05/09 07:26:30;;;;;;;4.07;3.33;;;15.90;69.60;;;;;;5113833;27;20473;-75
2023/05/09 07:28:57;;;;;;;4.77;3.93;;;16.00;69.00;;;;;;5115698;27;20469;-75
2023/05/09 07:31:24;;;;;;;5.50;3.80;;;16.20;68.60;;;;;;5113876;27;20463;-76
2023/05/09 07:33:51;;;;;;;5.70;3.60;;;16.20;67.30;;;;;;5114484;27;20529;-75
2023/05/09 07:36:18;;;;;;;5.80;3.57;;;16.20;66.80;;;;;;5112869;27;20534;-75
2023/05/09 07:38:46;;;;;;;3.97;3.63;;;16.40;66.90;;;;;;5114961;27;20848;-75
2023/05/09 07:41:14;;;;;;;9.03;4.13;;;16.50;65.90;;;;;;5115349;27;20464;-76
2023/05/09 07:43:42;;;;;;;4.97;3.80;;;16.60;65.40;;;;;;5114638;27;20448;-76
2023/05/09 07:46:11;;;;;;;5.57;3.83;;;16.60;64.70;;;;;;5114382;27;20498;-76
2023/05/09 07:48:39;;;;;;;3.53;3.13;;;16.70;64.20;;;;;;5112668;27;20448;-75
2023/05/09 07:51:06;;;;;;;3.57;3.00;;;16.80;63.90;;;;;;5113524;27;20461;-75
2023/05/09 07:53:33;;;;;;;4.23;3.83;;;16.70;62.30;;;;;;5114942;27;20465;-76
2023/05/09 07:56:00;;;;;;;3.90;3.50;;;16.60;62.10;;;;;;5115900;27;20517;-74
2023/05/09 07:58:27;;;;;;;5.47;2.77;;;16.70;62.00;;;;;;5116792;27;20474;-74
2023/05/09 08:01:00;;;;;;;3.87;3.13;;;16.70;61.40;;;;;;5119476;27;20464;-76
2023/05/09 08:03:27;;;;;;;3.20;2.90;;;16.80;61.90;;;;;;5123760;27;20464;-75
2023/05/09 08:05:55;;;;;;;3.40;3.10;;;16.80;62.20;;;;;;5122792;27;20532;-75
2023/05/09 08:08:25;;;;;;;3.50;3.20;;;16.90;62.00;;;;;;5128835;27;20482;-75
2023/05/09 08:10:52;;;;;;;3.30;3.00;;;16.90;61.60;;;;;;5137281;27;20525;-75
2023/05/09 08:13:19;;;;;;;3.73;3.40;;;16.90;60.50;;;;;;5122432;27;20464;-75
2023/05/09 08:15:49;;;;;;;4.50;2.63;;;17.10;59.80;;;;;;5115607;27;20465;-76
2023/05/09 08:18:18;;;;;;;3.40;2.77;;;17.20;59.60;;;;;;5149847;27;20471;-76
2023/05/09 08:20:45;;;;;;;3.90;3.30;;;17.30;59.50;;;;;;5119724;27;20465;-75
2023/05/09 08:23:12;;;;;;;7.60;3.83;;;17.40;59.40;;;;;;5122052;27;20471;-76
2023/05/09 08:25:39;;;;;;;4.40;2.93;;;17.40;59.20;;;;;;5122564;27;20812;-76
2023/05/09 08:28:09;;;;;;;5.40;3.40;;;17.50;58.40;;;;;;5123252;27;20515;-75
2023/05/09 08:30:36;;;;;;;3.20;2.90;;;17.40;58.10;;;;;;5122789;27;20496;-76
2023/05/09 08:33:03;;;;;;;6.30;3.80;;;17.40;58.10;;;;;;5121540;27;20468;-75
2023/05/09 08:35:36;;;;;;;6.70;3.30;;;17.40;58.00;;;;;;5121669;27;20469;-76
2023/05/09 08:38:03;;;;;;;5.00;3.50;;;17.40;57.90;;;;;;5124084;27;20909;-77
2023/05/09 08:40:30;;;;;;;3.67;3.37;;;17.30;57.20;;;;;;5122539;27;20464;-75
2023/05/09 08:42:58;;;;;;;3.93;3.53;;;17.40;57.40;;;;;;5124066;27;20464;-75
2023/05/09 08:45:29;;;;;;;4.50;3.40;;;17.50;57.80;;;;;;5127596;27;20526;-74
2023/05/09 08:47:58;;;;;;;3.33;3.03;;;17.60;57.90;;;;;;5132162;27;20466;-76
2023/05/09 08:50:25;;;;;;;4.40;3.00;;;17.70;57.40;;;;;;5135983;27;20460;-76
2023/05/09 08:52:54;;;;;;;6.30;3.10;;;17.70;57.50;;;;;;5134871;27;20475;-76
2023/05/09 08:55:22;;;;;;;4.30;3.30;;;17.60;57.30;;;;;;5136575;27;20954;-76
2023/05/09 08:57:50;;;;;;;5.47;3.03;;;17.60;57.60;;;;;;5131737;27;20498;-76
2023/05/09 09:00:19;;;;;;;3.33;2.60;;;17.60;57.60;;;;;;5126662;27;20466;-76
2023/05/09 09:02:49;;;;;;;4.10;2.87;;;17.60;57.60;;;;;;5126787;27;20544;-74
2023/05/09 09:05:17;;;;;;;10.07;4.50;;;17.60;57.20;;;;;;5125134;27;20460;-74
2023/05/09 09:07:46;;;;;;;4.20;3.77;;;17.60;57.70;;;;;;5124222;27;20977;-76
2023/05/09 09:10:15;;;;;;;3.90;3.60;;;17.50;57.60;;;;;;5124769;27;20525;-76
2023/05/09 09:12:43;;;;;;;8.90;4.10;;;17.50;57.60;;;;;;5126284;27;20494;-75
2023/05/09 09:15:16;;;;;;;3.93;3.10;;;17.60;57.70;;;;;;5132896;27;20493;-75
2023/05/09 09:17:45;;;;;;;3.87;3.27;;;17.60;57.60;;;;;;5132060;27;20528;-75
2023/05/09 09:20:15;;;;;;;3.10;2.80;;;17.60;57.40;;;;;;5130325;27;20521;-75
2023/05/09 09:22:44;;;;;;;4.90;3.47;;;17.60;57.50;;;;;;5125834;27;20618;-75
2023/05/09 09:25:11;;;;;;;5.07;3.27;;;17.60;57.80;;;;;;5125681;27;20487;-75
2023/05/09 09:27:40;;;;;;;3.10;2.47;;;17.60;57.20;;;;;;5122908;27;20472;-76
2023/05/09 09:30:08;;;;;;;4.57;3.60;;;17.50;56.60;;;;;;5120843;27;20985;-75
2023/05/09 09:32:36;;;;;;;4.50;3.30;;;17.50;57.20;;;;;;5118060;27;20464;-76
2023/05/09 09:35:07;;;;;;;4.10;2.97;;;17.60;57.40;;;;;;5118560;27;20507;-75
2023/05/09 09:37:35;;;;;;;3.77;3.47;;;17.70;57.50;;;;;;5117142;27;20556;-74
2023/05/09 09:40:04;;;;;;;3.73;3.27;;;17.70;57.00;;;;;;5115102;27;20484;-74
2023/05/09 09:42:50;;;;;;;3.93;2.53;;;17.80;56.90;;;;;;5115662;27;20460;-75
2023/05/09 09:45:18;;;;;;;5.50;3.50;;;17.90;56.80;;;;;;5115412;27;20457;-75
2023/05/09 09:47:47;;;;;;;7.00;3.00;;;17.90;56.50;;;;;;5114798;27;20464;-74
2023/05/09 09:50:16;;;;;;;7.10;3.73;;;17.90;56.60;;;;;;5114952;27;20529;-75
2023/05/09 09:52:45;;;;;;;6.00;3.27;;;17.90;55.10;;;;;;5113080;27;20468;-74
2023/05/09 09:55:12;;;;;;;4.37;3.13;;;17.90;54.60;;;;;;5115335;27;20954;-74
2023/05/09 09:57:43;;;;;;;3.03;2.83;;;18.00;54.30;;;;;;5115557;27;20555;-75
2023/05/09 10:00:11;;;;;;;3.43;3.10;;;18.00;53.50;;;;;;5115182;27;20460;-76
2023/05/09 10:02:48;;;;;;;2.93;2.73;;;18.00;54.20;;;;;;5115393;27;20567;-77
2023/05/09 10:05:19;;;;;;;8.63;3.43;;;18.00;54.50;;;;;;5114481;27;20464;-76
2023/05/09 10:07:50;;;;;;;6.50;2.87;;;18.10;54.80;;;;;;5115029;27;20472;-75
2023/05/09 10:10:17;;;;;;;7.90;3.20;;;18.20;54.20;;;;;;5114523;27;20543;-76
2023/05/09 10:12:46;;;;;;;3.00;2.80;;;18.20;53.90;;;;;;5115280;27;21015;-75
2023/05/09 10:15:17;;;;;;;3.20;3.00;;;18.30;53.70;;;;;;5114298;27;20472;-75
2023/05/09 10:17:44;;;;;;;4.93;3.33;;;18.30;53.70;;;;;;5115248;27;20465;-75
2023/05/09 10:20:13;;;;;;;3.23;2.40;;;18.40;53.00;;;;;;5116837;27;20530;-75
2023/05/09 10:22:41;;;;;;;3.10;2.90;;;18.50;53.50;;;;;;5128700;27;20534;-75
2023/05/09 10:25:14;;;;;;;3.50;3.20;;;18.60;54.00;;;;;;5141835;27;20477;-75
2023/05/09 10:27:50;;;;;;;5.97;3.80;;;18.60;54.30;;;;;;5114819;27;20460;-75
2023/05/09 10:30:19;;;;;;;5.00;3.13;;;18.60;53.90;;;;;;5158089;27;20482;-75
2023/05/09 10:32:52;;;;;;;3.47;3.17;;;18.80;54.50;;;;;;5135298;27;20477;-75
2023/05/09 10:35:20;;;;;;;3.00;2.50;;;18.70;53.80;;;;;;5134363;27;20568;-75
2023/05/09 10:37:48;;;;;;;4.93;3.20;;;18.80;53.70;;;;;;5123261;27;20478;-75
2023/05/09 10:40:15;;;;;;;3.40;3.10;;;18.80;53.40;;;;;;5113778;27;20457;-75
2023/05/09 10:42:43;;;;;;;3.10;2.90;;;18.70;53.10;;;;;;5114585;27;20529;-75
2023/05/09 10:45:12;;;;;;;4.93;3.70;;;18.70;52.40;;;;;;5113488;27;20572;-75
2023/05/09 10:47:40;;;;;;;6.07;3.43;;;18.80;52.60;;;;;;5114284;27;20456;-74
2023/05/09 10:50:09;;;;;;;4.40;2.80;;;18.70;51.60;;;;;;5114117;27;20459;-74
2023/05/09 10:53:05;;;;;;;3.57;2.97;;;18.70;51.50;;;;;;5114380;27;20460;-75
2023/05/09 10:55:39;;;;;;;4.70;3.27;;;18.70;52.70;;;;;;5131128;27;20838;-75
2023/05/09 10:58:25;;;;;;;4.23;3.40;;;18.80;52.60;;;;;;5134930;27;20469;-76
2023/05/09 11:00:55;;;;;;;5.00;3.23;;;18.80;51.90;;;;;;5134584;27;20466;-76
2023/05/09 11:03:23;;;;;;;5.93;2.90;;;18.80;51.80;;;;;;5134816;27;20456;-75
2023/05/09 11:05:52;;;;;;;5.03;3.30;;;18.70;51.80;;;;;;5134330;27;20478;-76
2023/05/09 11:08:42;;;;;;;5.70;2.93;;;18.70;52.30;;;;;;5134632;27;20479;-76
2023/05/09 11:11:24;;;;;;;4.73;2.87;;;18.80;52.40;;;;;;5133477;27;20472;-75
2023/05/09 11:13:58;;;;;;;4.87;2.73;;;18.90;52.40;;;;;;5133796;27;20501;-76
2023/05/09 11:16:29;;;;;;;3.23;2.63;;;18.80;52.10;;;;;;5134312;27;20456;-75
2023/05/09 11:18:56;;;;;;;3.57;2.73;;;18.90;52.40;;;;;;5133908;27;20808;-76
2023/05/09 11:21:23;;;;;;;3.13;2.93;;;18.90;51.80;;;;;;5134283;27;20463;-76
2023/05/09 11:23:51;;;;;;;3.37;2.50;;;19.00;51.60;;;;;;5134182;27;20483;-75
2023/05/09 11:26:22;;;;;;;5.43;2.57;;;19.00;51.60;;;;;;5133541;27;20478;-76
2023/05/09 11:28:55;;;;;;;3.40;3.10;;;19.10;51.90;;;;;;5123440;27;20482;-76
2023/05/09 11:31:22;;;;;;;3.30;3.00;;;19.10;52.10;;;;;;5113099;27;20467;-76
2023/05/09 11:33:57;;;;;;;3.70;2.40;;;19.10;52.70;;;;;;5113060;27;20521;-76
2023/05/09 11:36:30;;;;;;;3.77;3.17;;;19.20;52.90;;;;;;5112816;27;20527;-76
2023/05/09 11:39:03;;;;;;;4.53;3.20;;;19.10;52.00;;;;;;5113653;27;20452;-76
2023/05/09 11:41:35;;;;;;;3.63;3.03;;;19.10;52.20;;;;;;5112083;27;20536;-76
2023/05/09 11:44:02;;;;;;;4.57;2.90;;;19.10;51.80;;;;;;5113057;27;20612;-76
2023/05/09 11:46:33;;;;;;;3.90;3.00;;;19.20;52.20;;;;;;5113112;27;20471;-76
2023/05/09 11:49:02;;;;;;;5.40;3.00;;;19.20;51.90;;;;;;5113353;27;20453;-76
2023/05/09 11:51:29;;;;;;;4.67;3.20;;;19.30;52.10;;;;;;5112937;27;20541;-76
2023/05/09 11:54:02;;;;;;;10.63;3.20;;;19.20;51.60;;;;;;5112312;27;20472;-76
2023/05/09 11:56:32;;;;;;;5.73;2.87;;;19.20;51.70;;;;;;5135360;27;20463;-75
2023/05/09 11:59:00;;;;;;;4.50;2.87;;;19.20;51.40;;;;;;5112981;27;20499;-74
2023/05/09 12:01:29;;;;;;;4.70;3.07;;;19.20;51.60;;;;;;5111160;27;20488;-74
2023/05/09 12:03:59;;;;;;;5.93;2.70;;;19.30;51.80;;;;;;5113156;27;20481;-74
2023/05/09 12:06:28;;;;;;;3.33;2.73;;;19.30;51.80;;;;;;5112545;27;20579;-75
2023/05/09 12:08:57;;;;;;;5.60;3.20;;;19.30;51.20;;;;;;5113084;27;20813;-74
2023/05/09 12:11:25;;;;;;;2.70;2.50;;;19.40;51.60;;;;;;5112320;27;20465;-75
2023/05/09 12:13:52;;;;;;;3.60;2.70;;;19.40;51.40;;;;;;5112735;27;20460;-74
2023/05/09 12:16:20;;;;;;;3.83;3.30;;;19.50;51.60;;;;;;5112037;27;20468;-74
2023/05/09 12:18:49;;;;;;;3.23;2.97;;;19.50;51.80;;;;;;5113308;27;20465;-77
2023/05/09 12:21:16;;;;;;;6.53;3.53;;;19.50;51.60;;;;;;5111985;27;20471;-75
2023/05/09 12:23:47;;;;;;;7.00;2.77;;;19.60;51.60;;;;;;5112590;27;20460;-76
2023/05/09 12:26:14;;;;;;;4.30;3.10;;;19.60;50.80;;;;;;5112680;27;20473;-76
2023/05/09 12:28:42;;;;;;;4.00;2.80;;;19.70;50.80;;;;;;5121668;27;20451;-76
2023/05/09 12:31:11;;;;;;;4.60;2.73;;;19.70;50.70;;;;;;5133263;27;20478;-76
2023/05/09 12:33:39;;;;;;;4.37;3.10;;;19.70;50.60;;;;;;5131752;27;20456;-76
2023/05/09 12:36:09;;;;;;;4.30;2.50;;;19.60;50.10;;;;;;5133211;27;20485;-76
2023/05/09 12:38:36;;;;;;;2.80;2.60;;;19.60;50.70;;;;;;5132618;27;20546;-76
2023/05/09 12:41:05;;;;;;;4.03;2.73;;;19.70;50.90;;;;;;5133029;27;20463;-76
2023/05/09 12:43:33;;;;;;;5.20;3.23;;;19.60;51.10;;;;;;5132491;27;20524;-76
2023/05/09 12:46:01;;;;;;;3.20;2.90;;;19.60;51.10;;;;;;5132793;27;20467;-76
2023/05/09 12:48:29;;;;;;;3.00;2.80;;;19.70;50.80;;;;;;5135856;27;20460;-76
2023/05/09 12:50:56;;;;;;;6.70;3.20;;;19.80;51.00;;;;;;5137270;27;20535;-76
2023/05/09 12:53:24;;;;;;;4.77;3.23;;;19.80;51.10;;;;;;5136674;27;20528;-76
2023/05/09 12:55:55;;;;;;;4.07;3.63;;;19.80;51.30;;;;;;5137087;27;20464;-76
2023/05/09 12:58:23;;;;;;;5.07;3.20;;;19.80;51.40;;;;;;5126781;27;20475;-76